sensor_id;sensor_type;location;lat;lon;timestamp;temperature;humidity
65038;DHT22;51605;47.040;15.294;2023-03-05T00:01:22;20.30;55.80
65038;DHT22;51605;47.040;15.294;2023-03-05T00:03:52;20.30;55.80
65038;DHT22;51605;47.040;15.294;2023-03-05T00:06:19;20.30;55.80
65038;DHT22;51605;47.040;15.294;2023-03-05T00:08:45;20.30;55.70
65038;DHT22;51605;47.040;15.294;2023-03-05T00:11:12;20.30;55.80
65038;DHT22;51605;47.040;15.294;2023-03-05T00:13:38;20.30;55.70
65038;DHT22;51605;47.040;15.294;2023-03-05T00:16:06;20.30;55.70
65038;DHT22;51605;47.040;15.294;2023-03-05T00:18:32;20.30;55.70
65038;DHT22;51605;47.040;15.294;2023-03-05T00:20:58;20.30;55.70
65038;DHT22;51605;47.040;15.294;2023-03-05T00:23:23;20.30;55.70
65038;DHT22;51605;47.040;15.294;2023-03-05T00:25:49;20.30;55.70
65038;DHT22;51605;47.040;15.294;2023-03-05T00:28:15;20.30;55.70
65038;DHT22;51605;47.040;15.294;2023-03-05T00:30:41;20.30;56.00
65038;DHT22;51605;47.040;15.294;2023-03-05T00:33:07;20.30;55.80
65038;DHT22;51605;47.040;15.294;2023-03-05T00:35:39;20.30;55.70
65038;DHT22;51605;47.040;15.294;2023-03-05T00:38:05;20.20;55.40
65038;DHT22;51605;47.040;15.294;2023-03-05T00:40:37;20.30;55.70
65038;DHT22;51605;47.040;15.294;2023-03-05T00:43:03;20.30;55.70
65038;DHT22;51605;47.040;15.294;2023-03-05T00:45:29;20.30;55.70
65038;DHT22;51605;47.040;15.294;2023-03-05T00:47:55;20.30;55.70
65038;DHT22;51605;47.040;15.294;2023-03-05T00:50:20;20.30;55.70
65038;DHT22;51605;47.040;15.294;2023-03-05T00:52:46;20.30;55.70
65038;DHT22;51605;47.040;15.294;2023-03-05T00:55:11;20.30;55.70
65038;DHT22;51605;47.040;15.294;2023-03-05T00:57:37;20.30;55.90
65038;DHT22;51605;47.040;15.294;2023-03-05T01:00:04;20.30;55.60
65038;DHT22;51605;47.040;15.294;2023-03-05T01:02:30;20.20;55.60
65038;DHT22;51605;47.040;15.294;2023-03-05T01:04:56;20.30;55.60
65038;DHT22;51605;47.040;15.294;2023-03-05T01:07:21;20.30;55.70
65038;DHT22;51605;47.040;15.294;2023-03-05T01:09:47;20.20;55.60
65038;DHT22;51605;47.040;15.294;2023-03-05T01:12:13;20.20;55.60
65038;DHT22;51605;47.040;15.294;2023-03-05T01:14:39;20.20;55.60
65038;DHT22;51605;47.040;15.294;2023-03-05T01:17:05;20.30;55.60
65038;DHT22;51605;47.040;15.294;2023-03-05T01:19:30;20.30;55.60
65038;DHT22;51605;47.040;15.294;2023-03-05T01:21:56;20.30;55.60
65038;DHT22;51605;47.040;15.294;2023-03-05T01:24:22;20.30;55.60
65038;DHT22;51605;47.040;15.294;2023-03-05T01:26:47;20.30;55.60
65038;DHT22;51605;47.040;15.294;2023-03-05T01:29:14;20.30;55.50
65038;DHT22;51605;47.040;15.294;2023-03-05T01:31:39;20.30;55.50
65038;DHT22;51605;47.040;15.294;2023-03-05T01:34:05;20.30;55.50
65038;DHT22;51605;47.040;15.294;2023-03-05T01:36:31;20.30;55.50
65038;DHT22;51605;47.040;15.294;2023-03-05T01:38:57;20.30;55.50
65038;DHT22;51605;47.040;15.294;2023-03-05T01:41:23;20.30;55.50
65038;DHT22;51605;47.040;15.294;2023-03-05T01:43:49;20.30;55.50
65038;DHT22;51605;47.040;15.294;2023-03-05T01:46:43;20.30;55.70
65038;DHT22;51605;47.040;15.294;2023-03-05T01:49:14;20.20;55.60
65038;DHT22;51605;47.040;15.294;2023-03-05T01:54:23;20.30;55.60
65038;DHT22;51605;47.040;15.294;2023-03-05T01:56:52;20.30;55.50
65038;DHT22;51605;47.040;15.294;2023-03-05T01:59:21;20.30;55.50
65038;DHT22;51605;47.040;15.294;2023-03-05T02:01:50;20.30;55.50
65038;DHT22;51605;47.040;15.294;2023-03-05T02:04:18;20.30;55.50
65038;DHT22;51605;47.040;15.294;2023-03-05T02:06:45;20.30;55.50
65038;DHT22;51605;47.040;15.294;2023-03-05T02:09:12;20.30;55.50
65038;DHT22;51605;47.040;15.294;2023-03-05T02:11:38;20.30;55.50
65038;DHT22;51605;47.040;15.294;2023-03-05T02:14:06;20.30;55.60
65038;DHT22;51605;47.040;15.294;2023-03-05T02:16:32;20.30;55.50
65038;DHT22;51605;47.040;15.294;2023-03-05T02:19:21;20.30;55.50
65038;DHT22;51605;47.040;15.294;2023-03-05T02:21:47;20.20;55.40
65038;DHT22;51605;47.040;15.294;2023-03-05T02:24:17;20.30;55.40
65038;DHT22;51605;47.040;15.294;2023-03-05T02:26:43;20.30;55.40
65038;DHT22;51605;47.040;15.294;2023-03-05T02:29:14;20.30;55.40
65038;DHT22;51605;47.040;15.294;2023-03-05T02:31:41;20.30;55.40
65038;DHT22;51605;47.040;15.294;2023-03-05T02:34:07;20.30;55.50
65038;DHT22;51605;47.040;15.294;2023-03-05T02:36:32;20.30;55.40
65038;DHT22;51605;47.040;15.294;2023-03-05T02:38:58;20.30;55.40
65038;DHT22;51605;47.040;15.294;2023-03-05T02:41:24;20.30;55.50
65038;DHT22;51605;47.040;15.294;2023-03-05T02:43:50;20.30;55.50
65038;DHT22;51605;47.040;15.294;2023-03-05T02:46:16;20.30;55.40
65038;DHT22;51605;47.040;15.294;2023-03-05T02:48:42;20.30;55.40
65038;DHT22;51605;47.040;15.294;2023-03-05T02:51:08;20.30;55.40
65038;DHT22;51605;47.040;15.294;2023-03-05T02:53:33;20.30;55.40
65038;DHT22;51605;47.040;15.294;2023-03-05T02:55:59;20.30;55.40
65038;DHT22;51605;47.040;15.294;2023-03-05T02:58:25;20.30;55.40
65038;DHT22;51605;47.040;15.294;2023-03-05T03:00:51;20.30;55.40
65038;DHT22;51605;47.040;15.294;2023-03-05T03:03:16;20.30;55.40
65038;DHT22;51605;47.040;15.294;2023-03-05T03:05:42;20.30;55.40
65038;DHT22;51605;47.040;15.294;2023-03-05T03:08:08;20.30;55.40
65038;DHT22;51605;47.040;15.294;2023-03-05T03:10:34;20.30;55.40
65038;DHT22;51605;47.040;15.294;2023-03-05T03:13:01;20.30;55.30
65038;DHT22;51605;47.040;15.294;2023-03-05T03:15:27;20.30;55.30
65038;DHT22;51605;47.040;15.294;2023-03-05T03:17:53;20.30;55.40
65038;DHT22;51605;47.040;15.294;2023-03-05T03:20:19;20.30;55.30
65038;DHT22;51605;47.040;15.294;2023-03-05T03:22:45;20.30;55.40
65038;DHT22;51605;47.040;15.294;2023-03-05T03:25:17;20.30;55.30
65038;DHT22;51605;47.040;15.294;2023-03-05T03:27:43;20.30;55.30
65038;DHT22;51605;47.040;15.294;2023-03-05T03:30:09;20.30;55.40
65038;DHT22;51605;47.040;15.294;2023-03-05T03:32:35;20.30;55.30
65038;DHT22;51605;47.040;15.294;2023-03-05T03:35:01;20.30;55.40
65038;DHT22;51605;47.040;15.294;2023-03-05T03:37:27;20.30;55.30
65038;DHT22;51605;47.040;15.294;2023-03-05T03:39:53;20.30;55.40
65038;DHT22;51605;47.040;15.294;2023-03-05T03:42:20;20.30;55.40
65038;DHT22;51605;47.040;15.294;2023-03-05T03:44:47;20.30;55.30
65038;DHT22;51605;47.040;15.294;2023-03-05T03:47:13;20.30;55.30
65038;DHT22;51605;47.040;15.294;2023-03-05T03:49:39;20.30;55.20
65038;DHT22;51605;47.040;15.294;2023-03-05T03:52:05;20.30;55.20
65038;DHT22;51605;47.040;15.294;2023-03-05T03:54:31;20.30;55.30
65038;DHT22;51605;47.040;15.294;2023-03-05T03:56:56;20.30;55.20
65038;DHT22;51605;47.040;15.294;2023-03-05T03:59:22;20.30;55.20
65038;DHT22;51605;47.040;15.294;2023-03-05T04:01:48;20.30;55.20
65038;DHT22;51605;47.040;15.294;2023-03-05T04:04:13;20.30;55.30
65038;DHT22;51605;47.040;15.294;2023-03-05T04:06:39;20.30;55.30
65038;DHT22;51605;47.040;15.294;2023-03-05T04:09:06;20.30;55.30
65038;DHT22;51605;47.040;15.294;2023-03-05T04:11:33;20.30;55.30
65038;DHT22;51605;47.040;15.294;2023-03-05T04:13:59;20.30;55.30
65038;DHT22;51605;47.040;15.294;2023-03-05T04:16:25;20.30;55.30
65038;DHT22;51605;47.040;15.294;2023-03-05T04:18:51;20.30;55.30
65038;DHT22;51605;47.040;15.294;2023-03-05T04:21:16;20.30;55.30
65038;DHT22;51605;47.040;15.294;2023-03-05T04:23:42;20.30;55.30
65038;DHT22;51605;47.040;15.294;2023-03-05T04:26:08;20.30;55.30
65038;DHT22;51605;47.040;15.294;2023-03-05T04:28:34;20.30;55.20
65038;DHT22;51605;47.040;15.294;2023-03-05T04:31:00;20.30;55.30
65038;DHT22;51605;47.040;15.294;2023-03-05T04:33:25;20.30;55.30
65038;DHT22;51605;47.040;15.294;2023-03-05T04:35:51;20.30;55.20
65038;DHT22;51605;47.040;15.294;2023-03-05T04:38:17;20.30;55.20
65038;DHT22;51605;47.040;15.294;2023-03-05T04:40:44;20.30;55.20
65038;DHT22;51605;47.040;15.294;2023-03-05T04:43:10;20.30;55.20
65038;DHT22;51605;47.040;15.294;2023-03-05T04:45:39;20.30;55.20
65038;DHT22;51605;47.040;15.294;2023-03-05T04:48:05;20.30;55.20
65038;DHT22;51605;47.040;15.294;2023-03-05T04:50:30;20.30;55.20
65038;DHT22;51605;47.040;15.294;2023-03-05T04:52:56;20.30;55.20
65038;DHT22;51605;47.040;15.294;2023-03-05T04:55:22;20.30;55.20
65038;DHT22;51605;47.040;15.294;2023-03-05T04:57:47;20.30;55.20
65038;DHT22;51605;47.040;15.294;2023-03-05T05:00:15;20.30;55.20
65038;DHT22;51605;47.040;15.294;2023-03-05T05:02:46;20.30;55.20
65038;DHT22;51605;47.040;15.294;2023-03-05T05:05:22;20.30;55.20
65038;DHT22;51605;47.040;15.294;2023-03-05T05:07:48;20.30;55.20
65038;DHT22;51605;47.040;15.294;2023-03-05T05:10:15;20.30;55.20
65038;DHT22;51605;47.040;15.294;2023-03-05T05:12:40;20.30;55.10
65038;DHT22;51605;47.040;15.294;2023-03-05T05:15:08;20.30;55.10
65038;DHT22;51605;47.040;15.294;2023-03-05T05:17:33;20.30;55.10
65038;DHT22;51605;47.040;15.294;2023-03-05T05:20:00;20.30;55.00
65038;DHT22;51605;47.040;15.294;2023-03-05T05:22:27;20.30;54.90
65038;DHT22;51605;47.040;15.294;2023-03-05T05:24:54;20.30;55.00
65038;DHT22;51605;47.040;15.294;2023-03-05T05:27:20;20.30;55.00
65038;DHT22;51605;47.040;15.294;2023-03-05T05:29:46;20.30;55.10
65038;DHT22;51605;47.040;15.294;2023-03-05T05:32:16;20.30;55.00
65038;DHT22;51605;47.040;15.294;2023-03-05T05:34:41;20.30;55.00
65038;DHT22;51605;47.040;15.294;2023-03-05T05:37:07;20.30;55.00
65038;DHT22;51605;47.040;15.294;2023-03-05T05:39:34;20.30;54.90
65038;DHT22;51605;47.040;15.294;2023-03-05T05:41:59;20.30;55.00
65038;DHT22;51605;47.040;15.294;2023-03-05T05:44:25;20.30;55.00
65038;DHT22;51605;47.040;15.294;2023-03-05T05:46:51;20.30;55.00
65038;DHT22;51605;47.040;15.294;2023-03-05T05:49:16;20.30;55.00
65038;DHT22;51605;47.040;15.294;2023-03-05T05:51:42;20.30;55.10
65038;DHT22;51605;47.040;15.294;2023-03-05T05:54:13;20.30;55.30
65038;DHT22;51605;47.040;15.294;2023-03-05T05:56:39;20.30;55.20
65038;DHT22;51605;47.040;15.294;2023-03-05T05:59:05;20.30;55.10
65038;DHT22;51605;47.040;15.294;2023-03-05T06:01:32;20.30;55.20
65038;DHT22;51605;47.040;15.294;2023-03-05T06:03:59;20.30;55.10
65038;DHT22;51605;47.040;15.294;2023-03-05T06:06:25;20.30;55.00
65038;DHT22;51605;47.040;15.294;2023-03-05T06:08:52;20.30;54.90
65038;DHT22;51605;47.040;15.294;2023-03-05T06:11:18;20.30;55.00
65038;DHT22;51605;47.040;15.294;2023-03-05T06:13:44;20.30;55.10
65038;DHT22;51605;47.040;15.294;2023-03-05T06:16:14;20.30;55.00
65038;DHT22;51605;47.040;15.294;2023-03-05T06:18:40;20.30;55.00
65038;DHT22;51605;47.040;15.294;2023-03-05T06:21:12;20.30;55.00
65038;DHT22;51605;47.040;15.294;2023-03-05T06:23:38;20.30;55.00
65038;DHT22;51605;47.040;15.294;2023-03-05T06:26:05;20.30;55.00
65038;DHT22;51605;47.040;15.294;2023-03-05T06:28:32;20.30;55.10
65038;DHT22;51605;47.040;15.294;2023-03-05T06:31:03;20.30;55.10
65038;DHT22;51605;47.040;15.294;2023-03-05T06:33:29;20.30;55.10
65038;DHT22;51605;47.040;15.294;2023-03-05T06:35:55;20.30;55.10
65038;DHT22;51605;47.040;15.294;2023-03-05T06:38:20;20.30;55.10
65038;DHT22;51605;47.040;15.294;2023-03-05T06:40:46;20.30;55.20
65038;DHT22;51605;47.040;15.294;2023-03-05T06:43:12;20.30;55.20
65038;DHT22;51605;47.040;15.294;2023-03-05T06:45:38;20.30;55.10
65038;DHT22;51605;47.040;15.294;2023-03-05T06:48:04;20.30;55.10
65038;DHT22;51605;47.040;15.294;2023-03-05T06:50:33;20.30;55.10
65038;DHT22;51605;47.040;15.294;2023-03-05T06:52:59;20.30;55.00
65038;DHT22;51605;47.040;15.294;2023-03-05T06:55:25;20.30;55.10
65038;DHT22;51605;47.040;15.294;2023-03-05T06:57:51;20.30;55.10
65038;DHT22;51605;47.040;15.294;2023-03-05T07:00:17;20.30;55.00
65038;DHT22;51605;47.040;15.294;2023-03-05T07:02:43;20.30;55.00
65038;DHT22;51605;47.040;15.294;2023-03-05T07:05:08;20.30;55.00
65038;DHT22;51605;47.040;15.294;2023-03-05T07:07:34;20.30;55.10
65038;DHT22;51605;47.040;15.294;2023-03-05T07:10:00;20.30;55.00
65038;DHT22;51605;47.040;15.294;2023-03-05T07:12:26;20.30;55.00
65038;DHT22;51605;47.040;15.294;2023-03-05T07:14:51;20.30;55.10
65038;DHT22;51605;47.040;15.294;2023-03-05T07:17:17;20.30;55.10
65038;DHT22;51605;47.040;15.294;2023-03-05T07:19:43;20.30;55.10
65038;DHT22;51605;47.040;15.294;2023-03-05T07:22:09;20.30;55.10
65038;DHT22;51605;47.040;15.294;2023-03-05T07:24:35;20.30;55.10
65038;DHT22;51605;47.040;15.294;2023-03-05T07:27:01;20.20;55.10
65038;DHT22;51605;47.040;15.294;2023-03-05T07:29:27;20.20;55.10
65038;DHT22;51605;47.040;15.294;2023-03-05T07:31:54;20.20;55.10
65038;DHT22;51605;47.040;15.294;2023-03-05T07:34:20;20.20;55.10
65038;DHT22;51605;47.040;15.294;2023-03-05T07:36:49;20.20;55.10
65038;DHT22;51605;47.040;15.294;2023-03-05T07:39:16;20.20;55.20
65038;DHT22;51605;47.040;15.294;2023-03-05T07:41:44;20.20;55.10
65038;DHT22;51605;47.040;15.294;2023-03-05T07:44:10;20.20;55.10
65038;DHT22;51605;47.040;15.294;2023-03-05T07:46:36;20.20;55.10
65038;DHT22;51605;47.040;15.294;2023-03-05T07:49:02;20.20;55.10
65038;DHT22;51605;47.040;15.294;2023-03-05T07:51:28;20.20;55.10
65038;DHT22;51605;47.040;15.294;2023-03-05T07:53:55;20.20;55.10
65038;DHT22;51605;47.040;15.294;2023-03-05T07:56:35;20.20;55.10
65038;DHT22;51605;47.040;15.294;2023-03-05T07:59:04;20.20;55.10
65038;DHT22;51605;47.040;15.294;2023-03-05T08:01:30;20.20;55.00
65038;DHT22;51605;47.040;15.294;2023-03-05T08:03:56;20.20;55.00
65038;DHT22;51605;47.040;15.294;2023-03-05T08:06:22;20.20;55.10
65038;DHT22;51605;47.040;15.294;2023-03-05T08:08:48;20.20;55.10
65038;DHT22;51605;47.040;15.294;2023-03-05T08:11:15;20.20;55.10
65038;DHT22;51605;47.040;15.294;2023-03-05T08:13:41;20.20;55.10
65038;DHT22;51605;47.040;15.294;2023-03-05T08:16:16;20.30;55.10
65038;DHT22;51605;47.040;15.294;2023-03-05T08:18:42;20.30;55.00
65038;DHT22;51605;47.040;15.294;2023-03-05T08:21:16;20.20;54.90
65038;DHT22;51605;47.040;15.294;2023-03-05T08:23:42;20.20;55.00
65038;DHT22;51605;47.040;15.294;2023-03-05T08:26:16;20.20;55.00
65038;DHT22;51605;47.040;15.294;2023-03-05T08:28:43;20.20;55.10
65038;DHT22;51605;47.040;15.294;2023-03-05T08:31:10;20.20;55.10
65038;DHT22;51605;47.040;15.294;2023-03-05T08:33:36;20.20;55.10
65038;DHT22;51605;47.040;15.294;2023-03-05T08:36:03;20.20;55.10
65038;DHT22;51605;47.040;15.294;2023-03-05T08:38:29;20.20;55.10
65038;DHT22;51605;47.040;15.294;2023-03-05T08:40:54;20.20;55.00
65038;DHT22;51605;47.040;15.294;2023-03-05T08:43:20;20.20;55.10
65038;DHT22;51605;47.040;15.294;2023-03-05T08:45:45;20.20;55.10
65038;DHT22;51605;47.040;15.294;2023-03-05T08:48:14;20.20;55.10
65038;DHT22;51605;47.040;15.294;2023-03-05T08:50:39;20.20;55.10
65038;DHT22;51605;47.040;15.294;2023-03-05T08:53:05;20.20;55.10
65038;DHT22;51605;47.040;15.294;2023-03-05T08:55:31;20.20;55.10
65038;DHT22;51605;47.040;15.294;2023-03-05T08:57:56;20.20;55.10
65038;DHT22;51605;47.040;15.294;2023-03-05T09:00:22;20.20;55.10
65038;DHT22;51605;47.040;15.294;2023-03-05T09:02:48;20.20;55.10
65038;DHT22;51605;47.040;15.294;2023-03-05T09:05:14;20.20;55.10
65038;DHT22;51605;47.040;15.294;2023-03-05T09:07:39;20.20;55.10
65038;DHT22;51605;47.040;15.294;2023-03-05T09:10:07;20.20;55.20
65038;DHT22;51605;47.040;15.294;2023-03-05T09:12:36;20.20;55.10
65038;DHT22;51605;47.040;15.294;2023-03-05T09:15:03;20.20;55.10
65038;DHT22;51605;47.040;15.294;2023-03-05T09:17:29;20.20;55.10
65038;DHT22;51605;47.040;15.294;2023-03-05T09:19:54;20.20;55.00
65038;DHT22;51605;47.040;15.294;2023-03-05T09:22:20;20.30;54.90
65038;DHT22;51605;47.040;15.294;2023-03-05T09:24:46;20.20;54.90
65038;DHT22;51605;47.040;15.294;2023-03-05T09:27:12;20.20;55.00
65038;DHT22;51605;47.040;15.294;2023-03-05T09:29:37;20.20;55.00
65038;DHT22;51605;47.040;15.294;2023-03-05T09:32:03;20.20;55.10
65038;DHT22;51605;47.040;15.294;2023-03-05T09:34:29;20.20;55.10
65038;DHT22;51605;47.040;15.294;2023-03-05T09:36:55;20.20;55.20
65038;DHT22;51605;47.040;15.294;2023-03-05T09:39:20;20.20;56.00
65038;DHT22;51605;47.040;15.294;2023-03-05T09:42:04;20.20;55.00
65038;DHT22;51605;47.040;15.294;2023-03-05T09:50:42;20.20;55.00
65038;DHT22;51605;47.040;15.294;2023-03-05T09:55:54;20.20;55.90
65038;DHT22;51605;47.040;15.294;2023-03-05T09:58:40;20.20;55.00
65038;DHT22;51605;47.040;15.294;2023-03-05T10:01:12;20.10;55.10
65038;DHT22;51605;47.040;15.294;2023-03-05T10:03:59;20.20;55.10
65038;DHT22;51605;47.040;15.294;2023-03-05T10:06:35;20.10;55.00
65038;DHT22;51605;47.040;15.294;2023-03-05T10:11:43;20.20;55.30
65038;DHT22;51605;47.040;15.294;2023-03-05T10:14:33;20.20;55.20
65038;DHT22;51605;47.040;15.294;2023-03-05T10:22:23;20.20;55.20
65038;DHT22;51605;47.040;15.294;2023-03-05T10:28:03;20.20;55.20
65038;DHT22;51605;47.040;15.294;2023-03-05T10:33:32;20.20;55.00
65038;DHT22;51605;47.040;15.294;2023-03-05T10:44:58;20.20;55.00
65038;DHT22;51605;47.040;15.294;2023-03-05T10:49:55;20.20;55.00
65038;DHT22;51605;47.040;15.294;2023-03-05T10:54:49;20.30;55.00
65038;DHT22;51605;47.040;15.294;2023-03-05T10:57:17;20.20;54.80
65038;DHT22;51605;47.040;15.294;2023-03-05T10:59:53;20.20;54.90
65038;DHT22;51605;47.040;15.294;2023-03-05T11:02:22;20.20;54.90
65038;DHT22;51605;47.040;15.294;2023-03-05T11:04:49;20.30;56.00
65038;DHT22;51605;47.040;15.294;2023-03-05T11:09:42;20.30;55.20
65038;DHT22;51605;47.040;15.294;2023-03-05T11:12:18;20.30;55.20
65038;DHT22;51605;47.040;15.294;2023-03-05T11:17:33;20.30;55.10
65038;DHT22;51605;47.040;15.294;2023-03-05T11:23:16;20.20;55.00
65038;DHT22;51605;47.040;15.294;2023-03-05T11:26:04;20.20;55.50
65038;DHT22;51605;47.040;15.294;2023-03-05T11:33:18;20.20;55.50
65038;DHT22;51605;47.040;15.294;2023-03-05T11:35:45;20.10;55.40
65038;DHT22;51605;47.040;15.294;2023-03-05T11:38:20;20.20;55.40
65038;DHT22;51605;47.040;15.294;2023-03-05T11:40:49;20.20;55.40
65038;DHT22;51605;47.040;15.294;2023-03-05T11:43:17;20.20;55.30
65038;DHT22;51605;47.040;15.294;2023-03-05T11:45:48;20.20;55.30
65038;DHT22;51605;47.040;15.294;2023-03-05T11:48:22;20.20;55.10
65038;DHT22;51605;47.040;15.294;2023-03-05T11:50:53;20.30;55.10
65038;DHT22;51605;47.040;15.294;2023-03-05T11:53:28;20.20;55.10
65038;DHT22;51605;47.040;15.294;2023-03-05T11:58:56;20.20;55.20
65038;DHT22;51605;47.040;15.294;2023-03-05T12:01:26;20.20;55.20
65038;DHT22;51605;47.040;15.294;2023-03-05T12:03:53;20.20;55.20
65038;DHT22;51605;47.040;15.294;2023-03-05T12:06:44;20.20;55.20
65038;DHT22;51605;47.040;15.294;2023-03-05T12:11:36;20.20;55.10
65038;DHT22;51605;47.040;15.294;2023-03-05T12:16:43;20.20;55.20
65038;DHT22;51605;47.040;15.294;2023-03-05T12:21:55;20.20;55.20
65038;DHT22;51605;47.040;15.294;2023-03-05T12:29:40;20.20;55.20
65038;DHT22;51605;47.040;15.294;2023-03-05T12:39:49;20.20;55.20
65038;DHT22;51605;47.040;15.294;2023-03-05T12:48:33;20.20;55.20
65038;DHT22;51605;47.040;15.294;2023-03-05T12:53:17;20.20;55.20
65038;DHT22;51605;47.040;15.294;2023-03-05T13:03:56;20.20;55.20
65038;DHT22;51605;47.040;15.294;2023-03-05T13:06:32;20.20;54.70
65038;DHT22;51605;47.040;15.294;2023-03-05T13:09:22;20.20;54.70
65038;DHT22;51605;47.040;15.294;2023-03-05T13:11:53;20.20;54.70
65038;DHT22;51605;47.040;15.294;2023-03-05T13:14:41;20.20;54.70
65038;DHT22;51605;47.040;15.294;2023-03-05T13:20:28;20.10;54.80
65038;DHT22;51605;47.040;15.294;2023-03-05T13:25:40;20.10;54.60
65038;DHT22;51605;47.040;15.294;2023-03-05T13:28:14;20.10;54.60
65038;DHT22;51605;47.040;15.294;2023-03-05T13:30:51;20.10;54.70
65038;DHT22;51605;47.040;15.294;2023-03-05T13:33:21;20.10;54.70
65038;DHT22;51605;47.040;15.294;2023-03-05T13:35:49;20.20;54.60
65038;DHT22;51605;47.040;15.294;2023-03-05T13:46:09;20.20;54.50
65038;DHT22;51605;47.040;15.294;2023-03-05T13:48:34;20.10;54.40
65038;DHT22;51605;47.040;15.294;2023-03-05T13:51:00;20.20;54.60
65038;DHT22;51605;47.040;15.294;2023-03-05T13:53:32;20.10;54.40
65038;DHT22;51605;47.040;15.294;2023-03-05T13:56:03;20.10;54.40
65038;DHT22;51605;47.040;15.294;2023-03-05T13:58:51;20.20;54.50
65038;DHT22;51605;47.040;15.294;2023-03-05T14:03:54;20.10;54.30
65038;DHT22;51605;47.040;15.294;2023-03-05T14:06:24;20.10;54.40
65038;DHT22;51605;47.040;15.294;2023-03-05T14:08:58;20.10;54.40
65038;DHT22;51605;47.040;15.294;2023-03-05T14:11:25;20.10;54.30
65038;DHT22;51605;47.040;15.294;2023-03-05T14:14:07;20.20;54.40
65038;DHT22;51605;47.040;15.294;2023-03-05T14:16:33;20.10;54.40
65038;DHT22;51605;47.040;15.294;2023-03-05T14:19:01;20.10;54.40
65038;DHT22;51605;47.040;15.294;2023-03-05T14:21:47;20.20;54.40
65038;DHT22;51605;47.040;15.294;2023-03-05T14:24:20;20.10;54.30
65038;DHT22;51605;47.040;15.294;2023-03-05T14:26:51;20.10;54.30
65038;DHT22;51605;47.040;15.294;2023-03-05T14:29:20;20.10;54.30
65038;DHT22;51605;47.040;15.294;2023-03-05T14:34:25;20.10;54.30
65038;DHT22;51605;47.040;15.294;2023-03-05T14:36:53;20.10;54.30
65038;DHT22;51605;47.040;15.294;2023-03-05T14:39:50;20.10;54.30
65038;DHT22;51605;47.040;15.294;2023-03-05T14:44:48;20.10;54.30
65038;DHT22;51605;47.040;15.294;2023-03-05T14:47:14;20.20;54.40
65038;DHT22;51605;47.040;15.294;2023-03-05T14:49:39;20.10;54.30
65038;DHT22;51605;47.040;15.294;2023-03-05T14:52:05;20.10;54.30
65038;DHT22;51605;47.040;15.294;2023-03-05T14:54:35;20.10;54.30
65038;DHT22;51605;47.040;15.294;2023-03-05T14:57:03;20.10;54.20
65038;DHT22;51605;47.040;15.294;2023-03-05T14:59:29;20.10;54.20
65038;DHT22;51605;47.040;15.294;2023-03-05T15:01:54;20.10;54.30
65038;DHT22;51605;47.040;15.294;2023-03-05T15:04:22;20.10;54.30
65038;DHT22;51605;47.040;15.294;2023-03-05T15:06:48;20.10;54.20
65038;DHT22;51605;47.040;15.294;2023-03-05T15:09:16;20.10;54.20
65038;DHT22;51605;47.040;15.294;2023-03-05T15:11:44;20.10;54.20
65038;DHT22;51605;47.040;15.294;2023-03-05T15:14:10;20.10;54.20
65038;DHT22;51605;47.040;15.294;2023-03-05T15:16:36;20.10;54.20
65038;DHT22;51605;47.040;15.294;2023-03-05T15:19:02;20.10;54.20
65038;DHT22;51605;47.040;15.294;2023-03-05T15:21:30;20.10;54.20
65038;DHT22;51605;47.040;15.294;2023-03-05T15:23:55;20.10;54.20
65038;DHT22;51605;47.040;15.294;2023-03-05T15:26:21;20.10;54.20
65038;DHT22;51605;47.040;15.294;2023-03-05T15:28:47;20.10;54.20
65038;DHT22;51605;47.040;15.294;2023-03-05T15:31:15;20.10;54.20
65038;DHT22;51605;47.040;15.294;2023-03-05T15:33:41;20.10;54.20
65038;DHT22;51605;47.040;15.294;2023-03-05T15:36:09;20.10;54.20
65038;DHT22;51605;47.040;15.294;2023-03-05T15:38:35;20.10;54.20
65038;DHT22;51605;47.040;15.294;2023-03-05T15:41:03;20.10;54.20
65038;DHT22;51605;47.040;15.294;2023-03-05T15:43:30;20.10;54.20
65038;DHT22;51605;47.040;15.294;2023-03-05T15:45:55;20.10;54.10
65038;DHT22;51605;47.040;15.294;2023-03-05T15:48:21;20.10;54.10
65038;DHT22;51605;47.040;15.294;2023-03-05T15:50:46;20.10;54.20
65038;DHT22;51605;47.040;15.294;2023-03-05T15:53:13;20.10;54.20
65038;DHT22;51605;47.040;15.294;2023-03-05T15:55:43;20.10;54.20
65038;DHT22;51605;47.040;15.294;2023-03-05T15:58:12;20.10;54.30
65038;DHT22;51605;47.040;15.294;2023-03-05T16:00:39;20.10;54.20
65038;DHT22;51605;47.040;15.294;2023-03-05T16:03:05;20.10;54.20
65038;DHT22;51605;47.040;15.294;2023-03-05T16:05:33;20.10;54.20
65038;DHT22;51605;47.040;15.294;2023-03-05T16:07:59;20.10;55.20
65038;DHT22;51605;47.040;15.294;2023-03-05T16:10:27;20.10;54.20
65038;DHT22;51605;47.040;15.294;2023-03-05T16:13:07;20.10;54.20
65038;DHT22;51605;47.040;15.294;2023-03-05T16:15:34;20.10;54.20
65038;DHT22;51605;47.040;15.294;2023-03-05T16:18:03;20.10;54.20
65038;DHT22;51605;47.040;15.294;2023-03-05T16:20:29;20.10;54.30
65038;DHT22;51605;47.040;15.294;2023-03-05T16:22:55;20.10;54.30
65038;DHT22;51605;47.040;15.294;2023-03-05T16:25:21;20.10;54.30
65038;DHT22;51605;47.040;15.294;2023-03-05T16:27:46;20.10;54.30
65038;DHT22;51605;47.040;15.294;2023-03-05T16:30:15;20.10;54.30
65038;DHT22;51605;47.040;15.294;2023-03-05T16:32:41;20.10;54.30
65038;DHT22;51605;47.040;15.294;2023-03-05T16:35:07;20.10;54.30
65038;DHT22;51605;47.040;15.294;2023-03-05T16:37:36;20.10;54.40
65038;DHT22;51605;47.040;15.294;2023-03-05T16:40:06;20.10;54.40
65038;DHT22;51605;47.040;15.294;2023-03-05T16:42:32;20.10;54.30
65038;DHT22;51605;47.040;15.294;2023-03-05T16:44:58;20.10;54.30
65038;DHT22;51605;47.040;15.294;2023-03-05T16:47:24;20.10;54.30
65038;DHT22;51605;47.040;15.294;2023-03-05T16:49:49;20.10;54.30
65038;DHT22;51605;47.040;15.294;2023-03-05T16:52:15;20.10;54.20
65038;DHT22;51605;47.040;15.294;2023-03-05T16:54:42;20.20;54.30
65038;DHT22;51605;47.040;15.294;2023-03-05T16:57:08;20.10;54.20
65038;DHT22;51605;47.040;15.294;2023-03-05T16:59:35;20.10;54.20
65038;DHT22;51605;47.040;15.294;2023-03-05T17:02:01;20.10;54.30
65038;DHT22;51605;47.040;15.294;2023-03-05T17:04:27;20.10;54.10
65038;DHT22;51605;47.040;15.294;2023-03-05T17:06:54;20.20;54.20
65038;DHT22;51605;47.040;15.294;2023-03-05T17:09:20;20.10;54.10
65038;DHT22;51605;47.040;15.294;2023-03-05T17:11:52;20.20;54.20
65038;DHT22;51605;47.040;15.294;2023-03-05T17:14:18;20.20;54.20